This is the latest recevied weather packets stored in our database for station/object KM4CNW. If no packets are shown the sender has not sent any weather packets the latest 10 day(s).
| Time | Temp. | Humidity | Pressure | Rain* | Wind** | Luminosity | Snow |
|---|---|---|---|---|---|---|---|
| 1777306716 | 18.89° C | 51% | 1017.4 hPa | 0 mm | - | 848 W/m² | - |
| 1777306413 | 18.89° C | 47% | 1017.5 hPa | 0 mm | - | 576 W/m² | - |
| 1777306113 | 18.33° C | 50% | 1017.5 hPa | 0 mm | - | 846 W/m² | - |
| 1777305809 | 18.89° C | 48% | 1017.5 hPa | 0 mm | - | 754 W/m² | - |
| 1777305505 | 17.78° C | 52% | 1017.4 hPa | 0 mm | - | 861 W/m² | - |
| 1777305201 | 18.33° C | 51% | 1017.5 hPa | 0 mm | - | 842 W/m² | - |
| 1777304896 | 18.33° C | 51% | 1017.7 hPa | 0 mm | - | 841 W/m² | - |
| 1777304593 | 18.33° C | 50% | 1017.7 hPa | 0 mm | - | 807 W/m² | - |
| 1777304289 | 17.78° C | 52% | 1017.8 hPa | 0 mm | - | 818 W/m² | - |
| 1777303987 | 17.22° C | 53% | 1017.6 hPa | 0 mm | - | 794 W/m² | - |
| 1777303683 | 17.22° C | 55% | 1017.7 hPa | 0 mm | - | 794 W/m² | - |
| 1777303381 | 17.22° C | 54% | 1017.8 hPa | 0 mm | - | 780 W/m² | - |
| 1777303078 | 16.67° C | 54% | 1017.7 hPa | 0 mm | - | 770 W/m² | - |
| 1777302776 | 16.67° C | 57% | 1017.9 hPa | 0 mm | - | 736 W/m² | - |
| 1777302474 | 16.11° C | 56% | 1018 hPa | 0 mm | - | 742 W/m² | - |
| 1777302171 | 16.11° C | 59% | 1017.8 hPa | 0 mm | - | 705 W/m² | - |
| 1777301869 | 15.56° C | 58% | 1018.1 hPa | 0 mm | - | 713 W/m² | - |
| 1777301566 | 15.56° C | 59% | 1018 hPa | 0 mm | - | 710 W/m² | - |
| 1777301263 | 15.56° C | 59% | 1017.9 hPa | 0 mm | - | 442 W/m² | - |
| 1777300960 | 15.56° C | 62% | 1018 hPa | 0 mm | - | 668 W/m² | - |
| 1777300658 | 15° C | 61% | 1018 hPa | 0 mm | - | 662 W/m² | - |
| 1777300355 | 15° C | 61% | 1018.2 hPa | 0 mm | - | 446 W/m² | - |
| 1777300052 | 15° C | 63% | 1018 hPa | 0 mm | - | 544 W/m² | - |
| 1777299748 | 14.44° C | 63% | 1018.2 hPa | 0 mm | - | 108 W/m² | - |
| 1777299446 | 14.44° C | 63% | 1018 hPa | 0 mm | - | 145 W/m² | - |
* Rain latest hour (hover to see other rain measurements)
** Current wind speed in m/s (hover to see current wind gust speed)